sensor_id;sensor_type;location;lat;lon;timestamp;temperature;humidity
10662;DHT22;5379;51.034;7.006;2023-03-21T00:00:00;14.70;99.90
10662;DHT22;5379;51.034;7.006;2023-03-21T00:02:27;14.70;99.90
10662;DHT22;5379;51.034;7.006;2023-03-21T00:04:54;14.70;99.90
10662;DHT22;5379;51.034;7.006;2023-03-21T00:07:21;14.70;99.90
10662;DHT22;5379;51.034;7.006;2023-03-21T00:09:49;14.70;99.90
10662;DHT22;5379;51.034;7.006;2023-03-21T00:12:16;14.60;99.90
10662;DHT22;5379;51.034;7.006;2023-03-21T00:14:45;14.70;99.90
10662;DHT22;5379;51.034;7.006;2023-03-21T00:17:12;14.70;99.90
10662;DHT22;5379;51.034;7.006;2023-03-21T00:19:40;14.70;99.90
10662;DHT22;5379;51.034;7.006;2023-03-21T00:22:09;14.70;99.90
10662;DHT22;5379;51.034;7.006;2023-03-21T00:24:36;14.70;99.90
10662;DHT22;5379;51.034;7.006;2023-03-21T00:27:05;14.70;99.90
10662;DHT22;5379;51.034;7.006;2023-03-21T00:29:32;14.60;99.90
10662;DHT22;5379;51.034;7.006;2023-03-21T00:31:59;14.60;99.90
10662;DHT22;5379;51.034;7.006;2023-03-21T00:34:26;14.60;99.90
10662;DHT22;5379;51.034;7.006;2023-03-21T00:36:52;14.60;99.90
10662;DHT22;5379;51.034;7.006;2023-03-21T00:39:20;14.70;99.90
10662;DHT22;5379;51.034;7.006;2023-03-21T00:41:47;14.60;99.90
10662;DHT22;5379;51.034;7.006;2023-03-21T00:44:15;14.50;99.90
10662;DHT22;5379;51.034;7.006;2023-03-21T00:46:42;14.50;99.90
10662;DHT22;5379;51.034;7.006;2023-03-21T00:49:09;14.50;99.90
10662;DHT22;5379;51.034;7.006;2023-03-21T00:51:36;14.40;99.90
10662;DHT22;5379;51.034;7.006;2023-03-21T00:54:03;14.40;99.90
10662;DHT22;5379;51.034;7.006;2023-03-21T00:56:31;14.40;99.90
10662;DHT22;5379;51.034;7.006;2023-03-21T00:58:57;14.40;99.90
10662;DHT22;5379;51.034;7.006;2023-03-21T05:30:23;13.90;99.90
10662;DHT22;5379;51.034;7.006;2023-03-21T05:32:50;13.90;99.90
10662;DHT22;5379;51.034;7.006;2023-03-21T05:35:17;13.90;99.90
10662;DHT22;5379;51.034;7.006;2023-03-21T05:37:44;13.90;99.90
10662;DHT22;5379;51.034;7.006;2023-03-21T05:40:12;13.90;99.90
10662;DHT22;5379;51.034;7.006;2023-03-21T05:42:39;13.90;99.90
10662;DHT22;5379;51.034;7.006;2023-03-21T05:45:06;13.90;99.90
10662;DHT22;5379;51.034;7.006;2023-03-21T05:47:34;13.90;99.90
10662;DHT22;5379;51.034;7.006;2023-03-21T05:50:01;13.90;99.90
10662;DHT22;5379;51.034;7.006;2023-03-21T05:52:28;13.90;99.90
10662;DHT22;5379;51.034;7.006;2023-03-21T05:54:55;14.00;99.90
10662;DHT22;5379;51.034;7.006;2023-03-21T05:57:22;14.00;99.90
10662;DHT22;5379;51.034;7.006;2023-03-21T05:59:50;14.10;99.90
10662;DHT22;5379;51.034;7.006;2023-03-21T06:02:17;14.10;99.90
10662;DHT22;5379;51.034;7.006;2023-03-21T06:04:45;14.10;99.90
10662;DHT22;5379;51.034;7.006;2023-03-21T06:07:12;14.10;99.90
10662;DHT22;5379;51.034;7.006;2023-03-21T06:09:39;14.10;99.90
10662;DHT22;5379;51.034;7.006;2023-03-21T06:12:06;14.00;99.90
10662;DHT22;5379;51.034;7.006;2023-03-21T06:14:33;14.00;99.90
10662;DHT22;5379;51.034;7.006;2023-03-21T06:17:00;14.00;99.90
10662;DHT22;5379;51.034;7.006;2023-03-21T06:19:27;14.00;99.90
10662;DHT22;5379;51.034;7.006;2023-03-21T06:21:56;14.00;99.90
10662;DHT22;5379;51.034;7.006;2023-03-21T06:24:22;14.10;99.90
10662;DHT22;5379;51.034;7.006;2023-03-21T06:26:51;14.10;99.90
10662;DHT22;5379;51.034;7.006;2023-03-21T06:29:18;14.10;99.90
10662;DHT22;5379;51.034;7.006;2023-03-21T06:31:44;14.10;99.90
10662;DHT22;5379;51.034;7.006;2023-03-21T06:34:11;14.20;99.90
10662;DHT22;5379;51.034;7.006;2023-03-21T06:36:38;14.20;99.90
10662;DHT22;5379;51.034;7.006;2023-03-21T06:39:07;14.10;99.90
10662;DHT22;5379;51.034;7.006;2023-03-21T06:41:35;14.00;99.90
10662;DHT22;5379;51.034;7.006;2023-03-21T06:44:02;14.00;99.90
10662;DHT22;5379;51.034;7.006;2023-03-21T06:46:29;14.00;99.90
10662;DHT22;5379;51.034;7.006;2023-03-21T06:48:56;14.10;99.90
10662;DHT22;5379;51.034;7.006;2023-03-21T06:51:23;14.20;99.90
10662;DHT22;5379;51.034;7.006;2023-03-21T06:53:50;14.20;99.90
10662;DHT22;5379;51.034;7.006;2023-03-21T06:56:18;14.20;99.90
10662;DHT22;5379;51.034;7.006;2023-03-21T06:58:45;14.20;99.90
10662;DHT22;5379;51.034;7.006;2023-03-21T07:01:12;14.30;99.90
10662;DHT22;5379;51.034;7.006;2023-03-21T07:03:40;14.30;99.90
10662;DHT22;5379;51.034;7.006;2023-03-21T07:06:09;14.30;99.90
10662;DHT22;5379;51.034;7.006;2023-03-21T07:08:38;14.30;99.90
10662;DHT22;5379;51.034;7.006;2023-03-21T07:11:06;14.30;99.90
10662;DHT22;5379;51.034;7.006;2023-03-21T07:13:34;14.30;99.90
10662;DHT22;5379;51.034;7.006;2023-03-21T07:16:01;14.30;99.90
10662;DHT22;5379;51.034;7.006;2023-03-21T07:18:28;14.40;99.90
10662;DHT22;5379;51.034;7.006;2023-03-21T07:20:55;14.30;99.90
10662;DHT22;5379;51.034;7.006;2023-03-21T07:23:23;14.30;99.90
10662;DHT22;5379;51.034;7.006;2023-03-21T07:25:51;14.30;99.90
10662;DHT22;5379;51.034;7.006;2023-03-21T07:28:19;14.40;99.90
10662;DHT22;5379;51.034;7.006;2023-03-21T07:30:52;14.30;99.90
10662;DHT22;5379;51.034;7.006;2023-03-21T07:33:19;14.40;99.90
10662;DHT22;5379;51.034;7.006;2023-03-21T07:35:48;14.40;99.90
10662;DHT22;5379;51.034;7.006;2023-03-21T07:38:14;14.30;99.90
10662;DHT22;5379;51.034;7.006;2023-03-21T07:40:42;14.30;99.90
10662;DHT22;5379;51.034;7.006;2023-03-21T07:43:09;14.20;99.90
10662;DHT22;5379;51.034;7.006;2023-03-21T07:45:36;14.20;99.90
10662;DHT22;5379;51.034;7.006;2023-03-21T07:48:05;14.20;99.90
10662;DHT22;5379;51.034;7.006;2023-03-21T07:50:32;14.20;99.90
10662;DHT22;5379;51.034;7.006;2023-03-21T07:52:58;14.10;99.90
10662;DHT22;5379;51.034;7.006;2023-03-21T07:55:26;14.20;99.90
10662;DHT22;5379;51.034;7.006;2023-03-21T07:57:53;14.10;99.90
10662;DHT22;5379;51.034;7.006;2023-03-21T08:00:20;14.20;99.90
10662;DHT22;5379;51.034;7.006;2023-03-21T08:02:49;14.30;99.90
10662;DHT22;5379;51.034;7.006;2023-03-21T08:05:21;14.30;99.90
10662;DHT22;5379;51.034;7.006;2023-03-21T08:07:48;14.30;99.90
10662;DHT22;5379;51.034;7.006;2023-03-21T08:10:16;14.20;99.90
10662;DHT22;5379;51.034;7.006;2023-03-21T08:12:44;14.20;99.90
10662;DHT22;5379;51.034;7.006;2023-03-21T08:15:12;14.30;99.90
10662;DHT22;5379;51.034;7.006;2023-03-21T08:17:39;14.20;99.90
10662;DHT22;5379;51.034;7.006;2023-03-21T08:20:11;14.40;99.90
10662;DHT22;5379;51.034;7.006;2023-03-21T08:22:40;14.40;99.90
10662;DHT22;5379;51.034;7.006;2023-03-21T08:25:10;14.40;99.90
10662;DHT22;5379;51.034;7.006;2023-03-21T08:27:38;14.30;99.90
10662;DHT22;5379;51.034;7.006;2023-03-21T08:30:06;14.30;99.90
10662;DHT22;5379;51.034;7.006;2023-03-21T08:32:33;14.30;99.90
10662;DHT22;5379;51.034;7.006;2023-03-21T08:35:05;14.30;99.90
10662;DHT22;5379;51.034;7.006;2023-03-21T08:37:35;14.30;99.90
10662;DHT22;5379;51.034;7.006;2023-03-21T08:40:04;14.30;99.90
10662;DHT22;5379;51.034;7.006;2023-03-21T08:42:34;14.40;99.90
10662;DHT22;5379;51.034;7.006;2023-03-21T08:45:01;14.50;99.90
10662;DHT22;5379;51.034;7.006;2023-03-21T08:47:29;14.60;99.90
10662;DHT22;5379;51.034;7.006;2023-03-21T08:49:56;14.60;99.90
10662;DHT22;5379;51.034;7.006;2023-03-21T08:52:23;14.60;99.90
10662;DHT22;5379;51.034;7.006;2023-03-21T08:54:50;14.40;99.90
10662;DHT22;5379;51.034;7.006;2023-03-21T08:57:18;14.40;99.90
10662;DHT22;5379;51.034;7.006;2023-03-21T08:59:45;14.40;99.90
10662;DHT22;5379;51.034;7.006;2023-03-21T09:02:13;14.40;99.90
10662;DHT22;5379;51.034;7.006;2023-03-21T09:04:40;14.30;99.90
10662;DHT22;5379;51.034;7.006;2023-03-21T09:07:08;14.30;99.90
10662;DHT22;5379;51.034;7.006;2023-03-21T09:09:35;14.40;99.90
10662;DHT22;5379;51.034;7.006;2023-03-21T09:12:02;14.40;99.90
10662;DHT22;5379;51.034;7.006;2023-03-21T09:14:31;14.60;99.90
10662;DHT22;5379;51.034;7.006;2023-03-21T09:16:59;14.50;99.90
10662;DHT22;5379;51.034;7.006;2023-03-21T09:19:26;14.60;99.90
10662;DHT22;5379;51.034;7.006;2023-03-21T09:21:54;14.60;99.90
10662;DHT22;5379;51.034;7.006;2023-03-21T09:24:22;14.70;99.90
10662;DHT22;5379;51.034;7.006;2023-03-21T09:26:49;14.60;99.90
10662;DHT22;5379;51.034;7.006;2023-03-21T09:29:16;14.60;99.90
10662;DHT22;5379;51.034;7.006;2023-03-21T09:31:45;14.50;99.90
10662;DHT22;5379;51.034;7.006;2023-03-21T09:34:12;14.60;99.90
10662;DHT22;5379;51.034;7.006;2023-03-21T09:36:40;14.70;99.90
10662;DHT22;5379;51.034;7.006;2023-03-21T09:39:08;14.50;99.90
10662;DHT22;5379;51.034;7.006;2023-03-21T09:42:02;14.60;99.90
10662;DHT22;5379;51.034;7.006;2023-03-21T09:44:40;14.60;99.90
10662;DHT22;5379;51.034;7.006;2023-03-21T09:47:16;14.90;99.90
10662;DHT22;5379;51.034;7.006;2023-03-21T09:49:48;14.80;99.90
10662;DHT22;5379;51.034;7.006;2023-03-21T09:52:20;14.90;99.90
10662;DHT22;5379;51.034;7.006;2023-03-21T09:54:48;15.00;99.90
10662;DHT22;5379;51.034;7.006;2023-03-21T09:57:30;15.00;99.90
10662;DHT22;5379;51.034;7.006;2023-03-21T10:00:00;14.80;99.90
10662;DHT22;5379;51.034;7.006;2023-03-21T10:02:37;14.80;99.90
10662;DHT22;5379;51.034;7.006;2023-03-21T10:05:11;14.80;99.90
10662;DHT22;5379;51.034;7.006;2023-03-21T10:07:41;14.70;99.90
10662;DHT22;5379;51.034;7.006;2023-03-21T10:10:15;14.80;99.90
10662;DHT22;5379;51.034;7.006;2023-03-21T10:12:43;14.80;99.90
10662;DHT22;5379;51.034;7.006;2023-03-21T10:15:16;14.70;99.90
10662;DHT22;5379;51.034;7.006;2023-03-21T10:17:50;14.70;99.90
10662;DHT22;5379;51.034;7.006;2023-03-21T10:20:20;14.80;99.90
10662;DHT22;5379;51.034;7.006;2023-03-21T10:22:49;14.70;99.90
10662;DHT22;5379;51.034;7.006;2023-03-21T10:25:19;14.80;99.90
10662;DHT22;5379;51.034;7.006;2023-03-21T10:27:47;15.10;99.90
10662;DHT22;5379;51.034;7.006;2023-03-21T10:33:09;14.90;99.90
10662;DHT22;5379;51.034;7.006;2023-03-21T10:35:38;14.90;99.90
10662;DHT22;5379;51.034;7.006;2023-03-21T10:38:13;14.90;99.90
10662;DHT22;5379;51.034;7.006;2023-03-21T10:40:41;14.90;99.90
10662;DHT22;5379;51.034;7.006;2023-03-21T10:43:17;15.00;99.90
10662;DHT22;5379;51.034;7.006;2023-03-21T10:45:45;15.10;99.90
10662;DHT22;5379;51.034;7.006;2023-03-21T10:48:14;15.10;99.90
10662;DHT22;5379;51.034;7.006;2023-03-21T10:50:42;15.20;99.90
10662;DHT22;5379;51.034;7.006;2023-03-21T10:53:17;15.40;99.90
10662;DHT22;5379;51.034;7.006;2023-03-21T10:55:47;15.50;99.90
10662;DHT22;5379;51.034;7.006;2023-03-21T10:58:17;15.20;99.90
10662;DHT22;5379;51.034;7.006;2023-03-21T11:00:54;15.20;99.90
10662;DHT22;5379;51.034;7.006;2023-03-21T11:03:26;15.30;99.90
10662;DHT22;5379;51.034;7.006;2023-03-21T11:06:05;15.40;99.90
10662;DHT22;5379;51.034;7.006;2023-03-21T11:08:38;15.50;99.90
10662;DHT22;5379;51.034;7.006;2023-03-21T11:11:06;15.50;99.90
10662;DHT22;5379;51.034;7.006;2023-03-21T11:13:37;15.50;99.90
10662;DHT22;5379;51.034;7.006;2023-03-21T11:16:07;15.50;99.90
10662;DHT22;5379;51.034;7.006;2023-03-21T11:18:40;15.60;99.90
10662;DHT22;5379;51.034;7.006;2023-03-21T11:21:09;15.80;99.90
10662;DHT22;5379;51.034;7.006;2023-03-21T11:23:41;15.90;99.90
10662;DHT22;5379;51.034;7.006;2023-03-21T11:26:16;15.90;99.90
10662;DHT22;5379;51.034;7.006;2023-03-21T11:28:45;15.80;99.90
10662;DHT22;5379;51.034;7.006;2023-03-21T11:31:12;15.80;99.90
10662;DHT22;5379;51.034;7.006;2023-03-21T11:33:50;15.70;99.90
10662;DHT22;5379;51.034;7.006;2023-03-21T11:36:30;15.60;99.90
10662;DHT22;5379;51.034;7.006;2023-03-21T11:39:11;15.80;99.90
10662;DHT22;5379;51.034;7.006;2023-03-21T11:41:40;15.90;99.90
10662;DHT22;5379;51.034;7.006;2023-03-21T11:44:24;16.00;99.90
10662;DHT22;5379;51.034;7.006;2023-03-21T11:46:51;16.10;99.90
10662;DHT22;5379;51.034;7.006;2023-03-21T11:49:19;16.10;99.90
10662;DHT22;5379;51.034;7.006;2023-03-21T11:51:51;16.00;99.90
10662;DHT22;5379;51.034;7.006;2023-03-21T11:54:23;16.00;99.90
10662;DHT22;5379;51.034;7.006;2023-03-21T11:56:57;15.90;99.90
10662;DHT22;5379;51.034;7.006;2023-03-21T11:59:38;16.00;99.90
10662;DHT22;5379;51.034;7.006;2023-03-21T12:02:25;15.90;99.90
10662;DHT22;5379;51.034;7.006;2023-03-21T12:05:03;15.90;99.90
10662;DHT22;5379;51.034;7.006;2023-03-21T12:07:44;16.00;99.90
10662;DHT22;5379;51.034;7.006;2023-03-21T12:10:29;16.00;99.90
10662;DHT22;5379;51.034;7.006;2023-03-21T12:13:07;15.90;99.90
10662;DHT22;5379;51.034;7.006;2023-03-21T12:15:38;15.80;99.90
10662;DHT22;5379;51.034;7.006;2023-03-21T12:18:13;15.70;99.90
10662;DHT22;5379;51.034;7.006;2023-03-21T12:20:45;15.80;99.90
10662;DHT22;5379;51.034;7.006;2023-03-21T12:23:35;15.70;99.90
10662;DHT22;5379;51.034;7.006;2023-03-21T12:26:13;15.70;99.90
10662;DHT22;5379;51.034;7.006;2023-03-21T12:28:52;16.40;99.90
10662;DHT22;5379;51.034;7.006;2023-03-21T12:31:25;16.60;99.90
10662;DHT22;5379;51.034;7.006;2023-03-21T12:34:09;16.40;99.90
10662;DHT22;5379;51.034;7.006;2023-03-21T12:36:51;16.00;99.90
10662;DHT22;5379;51.034;7.006;2023-03-21T12:39:27;15.90;99.90
10662;DHT22;5379;51.034;7.006;2023-03-21T12:44:46;15.70;99.90
10662;DHT22;5379;51.034;7.006;2023-03-21T12:47:20;15.50;99.90
10662;DHT22;5379;51.034;7.006;2023-03-21T12:49:49;15.50;99.90
10662;DHT22;5379;51.034;7.006;2023-03-21T12:52:23;15.50;99.90
10662;DHT22;5379;51.034;7.006;2023-03-21T12:54:54;15.50;99.90
10662;DHT22;5379;51.034;7.006;2023-03-21T12:57:26;15.90;99.90
10662;DHT22;5379;51.034;7.006;2023-03-21T12:59:58;16.00;99.90
10662;DHT22;5379;51.034;7.006;2023-03-21T13:02:29;16.00;99.90
10662;DHT22;5379;51.034;7.006;2023-03-21T13:05:00;16.00;99.90
10662;DHT22;5379;51.034;7.006;2023-03-21T13:07:32;16.20;99.90
10662;DHT22;5379;51.034;7.006;2023-03-21T13:10:01;16.30;99.90
10662;DHT22;5379;51.034;7.006;2023-03-21T13:12:42;16.20;99.90
10662;DHT22;5379;51.034;7.006;2023-03-21T13:15:44;16.30;99.90
10662;DHT22;5379;51.034;7.006;2023-03-21T13:21:09;16.00;99.90
10662;DHT22;5379;51.034;7.006;2023-03-21T13:23:40;16.20;99.90
10662;DHT22;5379;51.034;7.006;2023-03-21T13:26:09;16.40;99.90
10662;DHT22;5379;51.034;7.006;2023-03-21T13:28:39;16.10;99.90
10662;DHT22;5379;51.034;7.006;2023-03-21T13:31:16;16.20;99.90
10662;DHT22;5379;51.034;7.006;2023-03-21T13:33:46;16.50;99.90
10662;DHT22;5379;51.034;7.006;2023-03-21T13:36:15;16.20;99.90
10662;DHT22;5379;51.034;7.006;2023-03-21T13:38:49;16.30;99.90
10662;DHT22;5379;51.034;7.006;2023-03-21T13:41:19;16.50;99.90
10662;DHT22;5379;51.034;7.006;2023-03-21T13:43:51;16.30;99.90
10662;DHT22;5379;51.034;7.006;2023-03-21T13:46:34;16.30;99.90
10662;DHT22;5379;51.034;7.006;2023-03-21T13:49:13;16.30;99.90
10662;DHT22;5379;51.034;7.006;2023-03-21T13:51:45;16.20;99.90
10662;DHT22;5379;51.034;7.006;2023-03-21T13:54:20;16.20;99.90
10662;DHT22;5379;51.034;7.006;2023-03-21T13:56:51;16.30;99.90
10662;DHT22;5379;51.034;7.006;2023-03-21T13:59:35;16.50;99.90
10662;DHT22;5379;51.034;7.006;2023-03-21T14:02:19;16.50;99.90
10662;DHT22;5379;51.034;7.006;2023-03-21T14:04:53;16.60;99.90
10662;DHT22;5379;51.034;7.006;2023-03-21T14:07:25;16.40;99.90
10662;DHT22;5379;51.034;7.006;2023-03-21T14:09:57;16.20;99.90
10662;DHT22;5379;51.034;7.006;2023-03-21T14:12:28;16.10;99.90
10662;DHT22;5379;51.034;7.006;2023-03-21T14:15:02;16.10;99.90
10662;DHT22;5379;51.034;7.006;2023-03-21T14:17:31;16.30;99.90
10662;DHT22;5379;51.034;7.006;2023-03-21T14:20:00;16.20;99.90
10662;DHT22;5379;51.034;7.006;2023-03-21T14:22:33;16.10;99.90
10662;DHT22;5379;51.034;7.006;2023-03-21T14:25:02;16.00;99.90
10662;DHT22;5379;51.034;7.006;2023-03-21T14:27:31;16.00;99.90
10662;DHT22;5379;51.034;7.006;2023-03-21T14:30:00;16.10;99.90
10662;DHT22;5379;51.034;7.006;2023-03-21T14:32:28;16.00;99.90
10662;DHT22;5379;51.034;7.006;2023-03-21T14:34:59;16.30;99.90
10662;DHT22;5379;51.034;7.006;2023-03-21T14:37:31;16.20;99.90
10662;DHT22;5379;51.034;7.006;2023-03-21T14:40:02;16.20;99.90
10662;DHT22;5379;51.034;7.006;2023-03-21T14:42:33;16.20;99.90
10662;DHT22;5379;51.034;7.006;2023-03-21T14:45:15;16.30;99.90
10662;DHT22;5379;51.034;7.006;2023-03-21T14:47:53;16.30;99.90
10662;DHT22;5379;51.034;7.006;2023-03-21T14:50:22;16.40;99.90
10662;DHT22;5379;51.034;7.006;2023-03-21T14:52:52;16.50;99.90
10662;DHT22;5379;51.034;7.006;2023-03-21T14:55:20;16.60;99.90
10662;DHT22;5379;51.034;7.006;2023-03-21T14:57:47;16.60;99.90
10662;DHT22;5379;51.034;7.006;2023-03-21T15:00:21;16.70;99.90
10662;DHT22;5379;51.034;7.006;2023-03-21T15:02:49;16.70;99.90
10662;DHT22;5379;51.034;7.006;2023-03-21T15:05:20;16.50;99.90
10662;DHT22;5379;51.034;7.006;2023-03-21T15:07:54;16.50;99.90
10662;DHT22;5379;51.034;7.006;2023-03-21T15:10:23;16.80;99.90
10662;DHT22;5379;51.034;7.006;2023-03-21T15:12:53;16.80;99.90
10662;DHT22;5379;51.034;7.006;2023-03-21T15:15:22;17.00;99.90
10662;DHT22;5379;51.034;7.006;2023-03-21T15:17:49;17.10;99.90
10662;DHT22;5379;51.034;7.006;2023-03-21T15:20:20;16.90;99.90
10662;DHT22;5379;51.034;7.006;2023-03-21T15:22:50;17.20;99.90
10662;DHT22;5379;51.034;7.006;2023-03-21T15:25:24;17.10;99.90
10662;DHT22;5379;51.034;7.006;2023-03-21T15:27:53;17.20;99.90
10662;DHT22;5379;51.034;7.006;2023-03-21T15:30:22;17.30;99.90
10662;DHT22;5379;51.034;7.006;2023-03-21T15:32:50;17.20;99.90
10662;DHT22;5379;51.034;7.006;2023-03-21T15:35:20;17.30;99.90
10662;DHT22;5379;51.034;7.006;2023-03-21T15:38:20;17.40;99.90
10662;DHT22;5379;51.034;7.006;2023-03-21T15:44:13;16.90;99.90
10662;DHT22;5379;51.034;7.006;2023-03-21T15:46:43;17.40;99.90
10662;DHT22;5379;51.034;7.006;2023-03-21T15:49:18;17.30;99.90
10662;DHT22;5379;51.034;7.006;2023-03-21T15:51:50;17.10;99.90
10662;DHT22;5379;51.034;7.006;2023-03-21T15:54:22;17.30;99.90
10662;DHT22;5379;51.034;7.006;2023-03-21T15:56:52;17.30;99.90
10662;DHT22;5379;51.034;7.006;2023-03-21T15:59:23;17.40;99.90
10662;DHT22;5379;51.034;7.006;2023-03-21T16:01:51;17.40;99.90
10662;DHT22;5379;51.034;7.006;2023-03-21T16:04:18;17.50;99.90
10662;DHT22;5379;51.034;7.006;2023-03-21T16:07:01;17.60;99.90
10662;DHT22;5379;51.034;7.006;2023-03-21T16:09:38;17.60;99.90
10662;DHT22;5379;51.034;7.006;2023-03-21T16:12:09;17.50;99.90
10662;DHT22;5379;51.034;7.006;2023-03-21T16:14:37;17.40;99.90
10662;DHT22;5379;51.034;7.006;2023-03-21T16:17:24;17.40;99.90
10662;DHT22;5379;51.034;7.006;2023-03-21T16:19:52;17.30;99.90
10662;DHT22;5379;51.034;7.006;2023-03-21T16:22:19;17.20;99.90
10662;DHT22;5379;51.034;7.006;2023-03-21T16:24:46;17.20;99.90
10662;DHT22;5379;51.034;7.006;2023-03-21T16:27:15;17.20;99.90
10662;DHT22;5379;51.034;7.006;2023-03-21T16:29:44;17.20;99.90
10662;DHT22;5379;51.034;7.006;2023-03-21T16:32:14;17.30;99.90
10662;DHT22;5379;51.034;7.006;2023-03-21T16:34:42;17.30;99.90
10662;DHT22;5379;51.034;7.006;2023-03-21T16:37:11;17.30;99.90
10662;DHT22;5379;51.034;7.006;2023-03-21T16:39:40;17.40;99.90
10662;DHT22;5379;51.034;7.006;2023-03-21T16:42:09;17.50;99.90
10662;DHT22;5379;51.034;7.006;2023-03-21T16:44:36;17.50;99.90
10662;DHT22;5379;51.034;7.006;2023-03-21T16:47:13;17.50;99.90
10662;DHT22;5379;51.034;7.006;2023-03-21T16:49:41;17.50;99.90
10662;DHT22;5379;51.034;7.006;2023-03-21T16:52:09;17.60;99.90
10662;DHT22;5379;51.034;7.006;2023-03-21T16:54:37;17.50;99.90
10662;DHT22;5379;51.034;7.006;2023-03-21T16:57:06;17.30;99.90
10662;DHT22;5379;51.034;7.006;2023-03-21T16:59:33;17.20;99.90
10662;DHT22;5379;51.034;7.006;2023-03-21T17:02:00;17.10;99.90
10662;DHT22;5379;51.034;7.006;2023-03-21T17:04:29;17.10;99.90
10662;DHT22;5379;51.034;7.006;2023-03-21T17:06:56;17.00;99.90
10662;DHT22;5379;51.034;7.006;2023-03-21T17:09:23;17.00;99.90
10662;DHT22;5379;51.034;7.006;2023-03-21T17:11:52;17.10;99.90
10662;DHT22;5379;51.034;7.006;2023-03-21T17:14:19;17.10;99.90
10662;DHT22;5379;51.034;7.006;2023-03-21T17:16:47;17.10;99.90
10662;DHT22;5379;51.034;7.006;2023-03-21T17:19:15;17.30;99.90
10662;DHT22;5379;51.034;7.006;2023-03-21T17:21:44;17.70;99.90
10662;DHT22;5379;51.034;7.006;2023-03-21T17:24:12;17.50;99.90
10662;DHT22;5379;51.034;7.006;2023-03-21T17:26:39;17.40;99.90
10662;DHT22;5379;51.034;7.006;2023-03-21T17:29:06;17.20;99.90
10662;DHT22;5379;51.034;7.006;2023-03-21T17:31:35;17.20;99.90
10662;DHT22;5379;51.034;7.006;2023-03-21T17:34:03;17.20;99.90
10662;DHT22;5379;51.034;7.006;2023-03-21T17:36:32;17.10;99.90
10662;DHT22;5379;51.034;7.006;2023-03-21T17:39:01;17.10;99.90
10662;DHT22;5379;51.034;7.006;2023-03-21T17:41:30;17.10;99.90
10662;DHT22;5379;51.034;7.006;2023-03-21T17:43:57;17.10;99.90
10662;DHT22;5379;51.034;7.006;2023-03-21T17:46:26;17.10;99.90
10662;DHT22;5379;51.034;7.006;2023-03-21T17:48:53;17.10;99.90
10662;DHT22;5379;51.034;7.006;2023-03-21T17:51:21;17.00;99.90
10662;DHT22;5379;51.034;7.006;2023-03-21T17:53:50;16.90;99.90
10662;DHT22;5379;51.034;7.006;2023-03-21T17:56:20;16.90;99.90
10662;DHT22;5379;51.034;7.006;2023-03-21T17:58:50;16.90;99.90
10662;DHT22;5379;51.034;7.006;2023-03-21T18:01:17;16.90;99.90
10662;DHT22;5379;51.034;7.006;2023-03-21T18:03:44;17.00;99.90
10662;DHT22;5379;51.034;7.006;2023-03-21T18:06:13;17.20;99.90
10662;DHT22;5379;51.034;7.006;2023-03-21T18:08:42;17.30;99.90
10662;DHT22;5379;51.034;7.006;2023-03-21T18:11:10;17.30;99.90
10662;DHT22;5379;51.034;7.006;2023-03-21T18:13:38;17.20;99.90
10662;DHT22;5379;51.034;7.006;2023-03-21T18:16:06;17.20;99.90
10662;DHT22;5379;51.034;7.006;2023-03-21T18:18:34;17.00;99.90
10662;DHT22;5379;51.034;7.006;2023-03-21T18:21:02;16.90;99.90
10662;DHT22;5379;51.034;7.006;2023-03-21T18:23:30;16.80;99.90
10662;DHT22;5379;51.034;7.006;2023-03-21T18:25:57;16.70;99.90
10662;DHT22;5379;51.034;7.006;2023-03-21T18:28:25;16.60;99.90
10662;DHT22;5379;51.034;7.006;2023-03-21T18:30:53;16.60;99.90
10662;DHT22;5379;51.034;7.006;2023-03-21T18:33:20;16.60;99.90
10662;DHT22;5379;51.034;7.006;2023-03-21T18:35:47;16.60;99.90
10662;DHT22;5379;51.034;7.006;2023-03-21T18:38:14;16.60;99.90
10662;DHT22;5379;51.034;7.006;2023-03-21T18:40:42;16.60;99.90
10662;DHT22;5379;51.034;7.006;2023-03-21T18:43:09;16.60;99.90
10662;DHT22;5379;51.034;7.006;2023-03-21T18:45:36;16.60;99.90
10662;DHT22;5379;51.034;7.006;2023-03-21T18:48:05;16.60;99.90
10662;DHT22;5379;51.034;7.006;2023-03-21T18:50:32;16.60;99.90
10662;DHT22;5379;51.034;7.006;2023-03-21T18:52:59;16.60;99.90
10662;DHT22;5379;51.034;7.006;2023-03-21T18:55:26;16.60;99.90
10662;DHT22;5379;51.034;7.006;2023-03-21T18:57:53;16.60;99.90
10662;DHT22;5379;51.034;7.006;2023-03-21T19:00:20;16.60;99.90
10662;DHT22;5379;51.034;7.006;2023-03-21T19:02:49;16.70;99.90
10662;DHT22;5379;51.034;7.006;2023-03-21T19:05:21;16.70;99.90
10662;DHT22;5379;51.034;7.006;2023-03-21T19:07:49;16.70;99.90
10662;DHT22;5379;51.034;7.006;2023-03-21T19:10:18;17.60;99.90
10662;DHT22;5379;51.034;7.006;2023-03-21T19:12:46;17.60;99.90
10662;DHT22;5379;51.034;7.006;2023-03-21T19:15:14;16.90;99.90
10662;DHT22;5379;51.034;7.006;2023-03-21T19:17:44;16.50;99.90
10662;DHT22;5379;51.034;7.006;2023-03-21T19:20:11;16.30;99.90
10662;DHT22;5379;51.034;7.006;2023-03-21T19:22:41;16.20;99.90
10662;DHT22;5379;51.034;7.006;2023-03-21T19:25:09;16.00;99.90
10662;DHT22;5379;51.034;7.006;2023-03-21T19:27:37;16.10;99.90
10662;DHT22;5379;51.034;7.006;2023-03-21T19:30:07;16.20;99.90
10662;DHT22;5379;51.034;7.006;2023-03-21T19:32:34;16.30;99.90
10662;DHT22;5379;51.034;7.006;2023-03-21T19:35:02;16.50;99.90
10662;DHT22;5379;51.034;7.006;2023-03-21T19:37:29;16.70;99.90
10662;DHT22;5379;51.034;7.006;2023-03-21T19:39:58;16.90;99.90
10662;DHT22;5379;51.034;7.006;2023-03-21T19:42:24;16.80;99.90
10662;DHT22;5379;51.034;7.006;2023-03-21T19:44:51;16.60;99.90
10662;DHT22;5379;51.034;7.006;2023-03-21T19:47:18;16.40;99.90
10662;DHT22;5379;51.034;7.006;2023-03-21T19:49:47;16.30;99.90
10662;DHT22;5379;51.034;7.006;2023-03-21T19:52:16;16.30;99.90
10662;DHT22;5379;51.034;7.006;2023-03-21T19:54:45;16.30;99.90
10662;DHT22;5379;51.034;7.006;2023-03-21T19:57:15;16.30;99.90
10662;DHT22;5379;51.034;7.006;2023-03-21T19:59:42;16.30;99.90
10662;DHT22;5379;51.034;7.006;2023-03-21T20:02:10;16.40;99.90
10662;DHT22;5379;51.034;7.006;2023-03-21T20:04:37;16.30;99.90
10662;DHT22;5379;51.034;7.006;2023-03-21T20:07:05;16.30;99.90
10662;DHT22;5379;51.034;7.006;2023-03-21T20:09:31;16.30;99.90
10662;DHT22;5379;51.034;7.006;2023-03-21T20:11:59;16.40;99.90
10662;DHT22;5379;51.034;7.006;2023-03-21T20:14:28;16.40;99.90
10662;DHT22;5379;51.034;7.006;2023-03-21T20:16:55;16.40;99.90
10662;DHT22;5379;51.034;7.006;2023-03-21T20:19:22;16.40;99.90
10662;DHT22;5379;51.034;7.006;2023-03-21T20:21:49;16.40;99.90
10662;DHT22;5379;51.034;7.006;2023-03-21T20:24:16;16.30;99.90
10662;DHT22;5379;51.034;7.006;2023-03-21T20:26:44;16.30;99.90
10662;DHT22;5379;51.034;7.006;2023-03-21T20:29:11;16.30;99.90
10662;DHT22;5379;51.034;7.006;2023-03-21T20:31:39;16.30;99.90
10662;DHT22;5379;51.034;7.006;2023-03-21T20:34:06;16.30;99.90
10662;DHT22;5379;51.034;7.006;2023-03-21T20:36:33;16.30;99.90
10662;DHT22;5379;51.034;7.006;2023-03-21T20:39:01;16.30;99.90
10662;DHT22;5379;51.034;7.006;2023-03-21T20:41:28;16.30;99.90